Flugplatz Pattonville

Für EDTQ sind keine METAR/TAF Berichte vorhanden.
Es werden die Flugwettermeldungen vom Flugplatz Stuttgart in 19 km Entfernung angezeigt.

Bericht für EDDS

vom 23.05. um 18:50 UTC

Wind 5 kt aus 10°

Sichtweite 10 km oder mehr

gute Sicht, keine Wolken < 5000 ft, keine CB, keine Wettererscheinungen (CAVOK)

Temperatur 17.0°C

Taupunkt 8.0°C

Luftfeuchtigkeit 55%

Luftdruck 1017 hPa

keine wesentliche Wetteränderung innerhalb den nächsten 2 Stunden zu erwarten

EDDS 231850Z 01005KT CAVOK 17/08 Q1017 NOSIG

Prognose für EDDS

vom 23.05. um 17:00 UTC

Zwischen 18:00 UTC und 18:00 UTC

variable Windrichtung mit 3 kt

Sichtweite 10 km oder mehr

keine signifikanten Wettererscheinungen

keine Wolken

TAF EDDS 231700Z 2318/2418 VRB03KT CAVOK
Impressum